Ana Sayfa
METAR-TAF:

METAR-TAF

Havaalanları :

Colonel James Jabara Airport

Wichita, Kansas, Amerika Birleşik Devletleri

Enlem: 37-44-59N, Boylam: 097-13-08W, yükseklik: 432 m

Güncel hava durumu gözlemi

Rapor saat 07:54 UTC de 38 dakika önce yapıldı.
Rüzgar kuzey/kuzeybatıdan 8 kt
Sıcaklık 2°C
Nem 80%
Basınç 1012 hPa
Görüş mesafesi: 16.1 km
5000 ft yükseklikte az bulutlu

METAR: KAAO 140754Z AUTO 34008KT 10SM FEW050 02/M01 A2988 RMK AO2 SLP121 T00221011

Saat: 02:32 (08:32 UTC)


TAF: eksik

4.000'den fazla havaalanı için hava durumu gözlemleri ve tahminleri (METAR ve TAF raporları).

Kullanılabilir istasyonlar harita üzerinde sarı ve kırmızı noktalarla gösterilir.

İstasyonun adını görmek için fareyi noktanın üzerinde gezdirin.

Sonrasında hava gözlem ve tahminlerini görmek için tıklayın.

Haritayı değiştirmek için: yaklaştırmak için siyah artı işaretli yeşil düğmeye ve uzaklaştırmak için de eksi işaretli düğmeye hızla tıklayın; bitişik haritalar için yeşil okları kullanın.


METAR-TAF: